Time;durP1;ratioP1;P1;durP2;ratioP2;P2;SDS_P1;SDS_P2;PMS_P1;PMS_P2;Temp;Humidity;BMP_temperature;BMP_pressure;BME280_temperature;BME280_humidity;BME280_pressure;Samples;Min_cycle;Max_cycle;Signal;HPM_P1;HPM_P2
2021/05/01 00:02:14;;;;;;;12.73;8.80;;;;;;;7.00;nan;101572.88;5047213;28;20033;-79
2021/05/01 00:04:39;;;;;;;14.88;9.25;;;;;;;6.97;nan;101568.78;5052401;28;20028;-79
2021/05/01 00:07:05;;;;;;;15.30;8.75;;;;;;;7.00;nan;101564.06;5048497;28;20037;-79
2021/05/01 00:09:30;;;;;;;14.90;9.40;;;;;;;6.96;nan;101556.50;5040577;28;20032;-78
2021/05/01 00:11:56;;;;;;;17.17;8.93;;;;;;;6.94;nan;101558.53;5046721;28;20025;-78
2021/05/01 00:14:25;;;;;;;19.65;9.98;;;;;;;6.93;nan;101558.75;5045797;28;20502;-79
2021/05/01 00:16:52;;;;;;;16.75;9.90;;;;;;;6.92;nan;101559.78;5048162;28;20045;-78
2021/05/01 00:19:17;;;;;;;15.02;9.35;;;;;;;6.89;nan;101554.88;5048035;28;20030;-79
2021/05/01 00:21:43;;;;;;;15.52;9.55;;;;;;;6.84;nan;101558.16;5045823;28;20119;-79
2021/05/01 00:24:08;;;;;;;17.13;9.88;;;;;;;6.81;nan;101553.19;5050767;28;20029;-79
2021/05/01 00:26:34;;;;;;;16.95;9.85;;;;;;;6.77;nan;101543.16;5051960;28;20036;-79
2021/05/01 00:28:59;;;;;;;14.90;9.90;;;;;;;6.75;nan;101543.38;5045535;28;20037;-79
2021/05/01 00:31:27;;;;;;;16.05;9.40;;;;;;;6.77;nan;101537.84;5047274;28;20041;-79
2021/05/01 00:33:52;;;;;;;16.73;9.75;;;;;;;6.73;nan;101540.09;5046093;28;20037;-79
2021/05/01 00:36:18;;;;;;;17.83;9.60;;;;;;;6.66;nan;101537.44;5051631;28;20020;-79
2021/05/01 00:38:44;;;;;;;17.20;9.43;;;;;;;6.61;nan;101534.53;5053283;28;20021;-79
2021/05/01 00:41:10;;;;;;;16.50;10.52;;;;;;;6.60;nan;101545.38;5044791;28;20035;-79
2021/05/01 00:43:39;;;;;;;17.08;10.18;;;;;;;6.59;nan;101551.75;5047191;28;20044;-79
2021/05/01 00:46:05;;;;;;;16.60;9.02;;;;;;;6.54;nan;101554.19;5041210;28;20036;-78
2021/05/01 00:48:31;;;;;;;16.05;10.45;;;;;;;6.56;nan;101552.16;5043736;28;20029;-79
2021/05/01 00:50:58;;;;;;;19.17;10.45;;;;;;;6.58;nan;101552.75;5046744;28;20043;-79
2021/05/01 00:53:23;;;;;;;15.32;9.88;;;;;;;6.54;nan;101563.00;5048670;28;20028;-79
2021/05/01 00:55:49;;;;;;;19.95;10.52;;;;;;;6.56;nan;101558.28;5046211;28;20094;-79
2021/05/01 00:58:15;;;;;;;17.52;10.85;;;;;;;6.57;nan;101561.78;5042647;28;20051;-80
2021/05/01 01:00:56;;;;;;;19.13;11.07;;;;;;;6.55;nan;101564.66;5049120;28;20495;-79
2021/05/01 01:03:21;;;;;;;21.30;10.15;;;;;;;6.57;nan;101564.44;5049456;28;20147;-79
2021/05/01 01:05:47;;;;;;;19.58;10.63;;;;;;;6.54;nan;101562.19;5049580;28;20123;-79
2021/05/01 01:08:13;;;;;;;21.85;11.95;;;;;;;6.50;nan;101556.44;5049991;28;20045;-79
2021/05/01 01:10:39;;;;;;;18.13;10.90;;;;;;;6.43;nan;101560.91;5050981;28;20033;-78
2021/05/01 01:13:04;;;;;;;18.40;10.35;;;;;;;6.38;nan;101555.38;5053691;28;20037;-78
2021/05/01 01:15:31;;;;;;;20.05;11.90;;;;;;;6.31;nan;101547.38;5057636;28;20119;-78
2021/05/01 01:17:58;;;;;;;19.55;11.20;;;;;;;6.27;nan;101540.81;5058380;28;20509;-78
2021/05/01 01:20:24;;;;;;;25.13;11.70;;;;;;;6.21;nan;101544.28;5048274;28;20021;-78
2021/05/01 01:22:50;;;;;;;23.13;13.00;;;;;;;6.11;nan;101540.38;5048056;28;20029;-79
2021/05/01 01:25:16;;;;;;;21.10;11.73;;;;;;;6.05;nan;101542.78;5050663;28;20125;-79
2021/05/01 01:27:46;;;;;;;21.55;13.25;;;;;;;5.94;nan;101545.19;5049398;28;20797;-79
2021/05/01 01:30:17;;;;;;;21.90;12.93;;;;;;;5.78;nan;101548.16;5050118;28;20462;-78
2021/05/01 01:32:44;;;;;;;22.05;13.32;;;;;;;5.78;nan;101540.19;5048251;28;20029;-79
2021/05/01 01:35:12;;;;;;;24.90;13.05;;;;;;;5.77;nan;101536.69;5048978;28;20024;-79
2021/05/01 01:37:41;;;;;;;24.75;14.15;;;;;;;5.69;nan;101539.50;5055269;28;20665;-79
2021/05/01 01:40:09;;;;;;;24.67;14.02;;;;;;;5.67;nan;101536.22;5050695;28;20029;-78
2021/05/01 01:42:34;;;;;;;27.17;13.52;;;;;;;5.63;nan;101553.59;5051036;28;20304;-78
2021/05/01 01:45:00;;;;;;;24.50;14.25;;;;;;;5.62;nan;101557.28;5052998;28;20079;-79
2021/05/01 01:47:25;;;;;;;26.75;13.80;;;;;;;5.53;nan;101547.78;5055413;28;20112;-78
2021/05/01 01:49:51;;;;;;;29.83;14.48;;;;;;;5.52;nan;101546.97;5053992;28;20375;-79
2021/05/01 01:52:17;;;;;;;33.13;15.38;;;;;;;5.46;nan;101553.91;5049388;28;20490;-79
2021/05/01 01:54:42;;;;;;;24.23;14.85;;;;;;;5.44;nan;101555.13;5050712;28;20025;-79
2021/05/01 01:57:07;;;;;;;31.35;15.98;;;;;;;5.46;nan;101553.06;5050147;28;20567;-78
2021/05/01 01:59:33;;;;;;;28.52;16.00;;;;;;;5.50;nan;101551.66;5043658;28;20029;-79
2021/05/01 02:01:59;;;;;;;28.15;14.35;;;;;;;5.51;nan;101550.66;5048972;28;20036;-78
2021/05/01 02:04:25;;;;;;;26.77;14.27;;;;;;;5.60;nan;101554.81;5049722;28;20063;-79
2021/05/01 02:06:50;;;;;;;25.42;15.27;;;;;;;5.63;nan;101554.41;5051020;28;20048;-79
2021/05/01 02:09:16;;;;;;;26.02;14.80;;;;;;;5.63;nan;101559.72;5055593;28;20025;-79
2021/05/01 02:11:42;;;;;;;34.22;16.35;;;;;;;5.69;nan;101550.13;5050111;28;20372;-79
2021/05/01 02:14:07;;;;;;;32.30;15.13;;;;;;;5.67;nan;101568.13;5057081;28;20367;-79
2021/05/01 02:16:34;;;;;;;26.50;15.38;;;;;;;5.70;nan;101567.72;5053355;28;20056;-79
2021/05/01 02:19:00;;;;;;;31.13;15.40;;;;;;;5.72;nan;101565.69;5048369;28;20597;-79
2021/05/01 02:21:25;;;;;;;27.83;15.50;;;;;;;5.78;nan;101566.78;5047613;28;20036;-79
2021/05/01 02:23:51;;;;;;;25.85;15.20;;;;;;;5.80;nan;101565.56;5049435;28;20096;-78
2021/05/01 02:26:17;;;;;;;27.60;15.18;;;;;;;5.85;nan;101555.13;5049321;28;20024;-78
2021/05/01 02:28:43;;;;;;;26.98;15.50;;;;;;;5.87;nan;101557.59;5052389;28;20040;-79
2021/05/01 02:31:09;;;;;;;29.98;15.10;;;;;;;5.90;nan;101554.56;5051996;28;20621;-79
2021/05/01 02:33:36;;;;;;;27.30;14.80;;;;;;;5.91;nan;101554.38;5048479;28;20415;-79
2021/05/01 02:36:02;;;;;;;29.83;15.60;;;;;;;5.98;nan;101549.09;5059094;28;20036;-78
2021/05/01 02:38:27;;;;;;;28.58;14.38;;;;;;;5.99;nan;101554.22;5044523;28;20025;-78
2021/05/01 02:40:53;;;;;;;24.15;15.18;;;;;;;5.98;nan;101552.59;5053122;28;20016;-79
2021/05/01 02:43:18;;;;;;;25.95;15.10;;;;;;;6.06;nan;101554.25;5046281;28;20020;-79
2021/05/01 02:45:44;;;;;;;22.15;14.13;;;;;;;6.16;nan;101553.88;5051681;28;20098;-79
2021/05/01 02:48:11;;;;;;;25.85;14.10;;;;;;;6.21;nan;101551.44;5051702;28;20021;-79
2021/05/01 02:50:37;;;;;;;24.10;14.10;;;;;;;6.22;nan;101545.09;5047626;28;20032;-79
2021/05/01 02:53:04;;;;;;;23.05;14.05;;;;;;;6.17;nan;101545.69;5056514;28;20090;-79
2021/05/01 02:55:30;;;;;;;26.40;14.68;;;;;;;6.15;nan;101538.94;5049129;28;20488;-79
2021/05/01 02:57:55;;;;;;;20.63;13.50;;;;;;;6.18;nan;101536.69;5049855;28;20033;-79
2021/05/01 03:00:23;;;;;;;28.15;15.07;;;;;;;6.12;nan;101529.53;5051213;28;20021;-79
2021/05/01 03:02:48;;;;;;;25.30;15.73;;;;;;;6.18;nan;101530.56;5047324;28;20041;-78
2021/05/01 03:05:15;;;;;;;20.70;13.90;;;;;;;6.24;nan;101533.22;5051476;28;20039;-78
2021/05/01 03:07:41;;;;;;;21.10;13.35;;;;;;;6.25;nan;101523.41;5048187;28;20487;-79
2021/05/01 03:10:09;;;;;;;20.92;13.57;;;;;;;6.31;nan;101528.75;5046711;28;20029;-78
2021/05/01 03:12:35;;;;;;;20.95;13.55;;;;;;;6.34;nan;101522.22;5036990;28;20029;-78
2021/05/01 03:15:03;;;;;;;22.17;14.05;;;;;;;6.34;nan;101527.53;5049891;28;20021;-78
2021/05/01 03:17:29;;;;;;;21.55;13.65;;;;;;;6.24;nan;101519.09;5043872;28;20657;-79
2021/05/01 03:19:54;;;;;;;19.65;13.75;;;;;;;6.32;nan;101522.41;5050915;28;20112;-79
2021/05/01 03:22:20;;;;;;;18.90;12.93;;;;;;;6.33;nan;101513.41;5050580;28;20479;-79
2021/05/01 03:24:45;;;;;;;18.65;12.05;;;;;;;6.38;nan;101509.31;5048808;28;20029;-79
2021/05/01 03:27:11;;;;;;;18.63;13.02;;;;;;;6.32;nan;101510.94;5052430;28;20020;-78
2021/05/01 03:29:36;;;;;;;21.80;12.85;;;;;;;6.38;nan;101504.81;5051318;28;20024;-78
2021/05/01 03:32:02;;;;;;;23.75;14.70;;;;;;;6.33;nan;101512.59;5046659;28;20033;-78
2021/05/01 03:34:28;;;;;;;20.33;13.43;;;;;;;6.33;nan;101516.06;5046533;28;20028;-78
2021/05/01 03:36:53;;;;;;;21.70;13.55;;;;;;;6.38;nan;101522.63;5056363;28;20033;-79
2021/05/01 03:39:19;;;;;;;19.58;13.25;;;;;;;6.39;nan;101516.28;5051485;28;20048;-79
2021/05/01 03:41:44;;;;;;;22.02;13.13;;;;;;;6.38;nan;101519.97;5044499;28;20035;-78
2021/05/01 03:44:11;;;;;;;18.15;12.52;;;;;;;6.42;nan;101519.34;5048183;28;20142;-77
2021/05/01 03:46:36;;;;;;;18.50;12.88;;;;;;;6.45;nan;101512.78;5045317;28;20115;-77
2021/05/01 03:49:02;;;;;;;22.42;12.35;;;;;;;6.51;nan;101520.00;5050092;28;20128;-77
2021/05/01 03:51:28;;;;;;;19.15;12.50;;;;;;;6.51;nan;101518.16;5049039;28;20062;-77
2021/05/01 03:53:53;;;;;;;17.83;12.35;;;;;;;6.55;nan;101515.91;5051912;28;20410;-77
2021/05/01 03:56:19;;;;;;;18.92;12.13;;;;;;;6.54;nan;101524.91;5048191;28;20026;-77
2021/05/01 03:58:44;;;;;;;18.00;11.52;;;;;;;6.55;nan;101527.38;5047687;28;20564;-77
2021/05/01 04:01:10;;;;;;;22.23;12.90;;;;;;;6.61;nan;101528.38;5047400;28;20027;-77
2021/05/01 04:03:35;;;;;;;18.88;11.32;;;;;;;6.58;nan;101521.63;5046698;28;20028;-77
2021/05/01 04:06:01;;;;;;;19.13;13.10;;;;;;;6.55;nan;101518.56;5041281;28;20056;-77
2021/05/01 04:08:27;;;;;;;17.08;11.60;;;;;;;6.46;nan;101511.78;5043597;28;20032;-77
2021/05/01 04:10:53;;;;;;;17.17;11.55;;;;;;;6.52;nan;101510.97;5048730;28;20040;-77
2021/05/01 04:13:18;;;;;;;17.05;11.32;;;;;;;6.57;nan;101512.00;5044509;28;20578;-77
2021/05/01 04:15:44;;;;;;;21.85;11.35;;;;;;;6.63;nan;101513.03;5038093;28;20037;-77
2021/05/01 04:18:13;;;;;;;16.27;11.90;;;;;;;6.54;nan;101520.41;5045119;28;20017;-77
2021/05/01 04:20:40;;;;;;;17.98;11.75;;;;;;;6.57;nan;101519.19;5045858;28;20054;-77
2021/05/01 04:23:08;;;;;;;18.88;11.77;;;;;;;6.62;nan;101524.69;5043537;28;20028;-77
2021/05/01 04:25:35;;;;;;;19.10;12.75;;;;;;;6.57;nan;101527.97;5039745;28;20023;-77
2021/05/01 04:28:00;;;;;;;18.90;11.80;;;;;;;6.66;nan;101528.63;5048832;28;20037;-77
2021/05/01 04:30:26;;;;;;;19.20;11.65;;;;;;;6.64;nan;101530.63;5048247;28;20037;-77
2021/05/01 04:32:52;;;;;;;16.40;11.90;;;;;;;6.65;nan;101527.81;5042020;28;20419;-77
2021/05/01 04:35:17;;;;;;;18.30;12.02;;;;;;;6.65;nan;101527.81;5047018;28;20021;-77
2021/05/01 04:37:43;;;;;;;18.05;11.82;;;;;;;6.59;nan;101527.78;5045014;28;20173;-77
2021/05/01 04:40:09;;;;;;;17.30;11.88;;;;;;;6.64;nan;101525.31;5042914;28;20454;-77
2021/05/01 04:42:36;;;;;;;20.00;11.38;;;;;;;6.64;nan;101525.31;5051878;28;20021;-77
2021/05/01 04:45:03;;;;;;;19.92;12.75;;;;;;;6.58;nan;101531.47;5050463;28;20120;-77
2021/05/01 04:47:29;;;;;;;19.25;11.55;;;;;;;6.60;nan;101524.91;5053256;28;20032;-77
2021/05/01 04:49:54;;;;;;;17.65;12.70;;;;;;;6.64;nan;101530.63;5048584;28;20929;-77
2021/05/01 04:52:20;;;;;;;18.95;12.07;;;;;;;6.65;nan;101532.31;5052531;28;20111;-77
2021/05/01 04:54:45;;;;;;;17.10;10.80;;;;;;;6.70;nan;101535.19;5057054;28;20032;-77
2021/05/01 04:57:11;;;;;;;18.08;12.30;;;;;;;6.66;nan;101540.09;5052523;28;20025;-77
2021/05/01 04:59:36;;;;;;;19.33;12.63;;;;;;;6.60;nan;101543.53;5051258;28;20017;-77
2021/05/01 05:02:02;;;;;;;20.58;12.07;;;;;;;6.63;nan;101537.00;5046093;28;20098;-77
2021/05/01 05:04:27;;;;;;;18.48;12.30;;;;;;;6.74;nan;101536.41;5048287;28;20048;-77
2021/05/01 05:06:53;;;;;;;19.73;12.45;;;;;;;6.74;nan;101535.59;5054823;28;20020;-77
2021/05/01 05:09:18;;;;;;;17.90;12.63;;;;;;;6.70;nan;101529.03;5057441;28;20047;-77
2021/05/01 05:11:44;;;;;;;17.67;11.52;;;;;;;6.76;nan;101536.19;5050017;28;20033;-77
2021/05/01 05:14:09;;;;;;;18.58;11.70;;;;;;;6.75;nan;101540.72;5049258;28;20129;-77
2021/05/01 05:16:35;;;;;;;18.70;12.30;;;;;;;6.80;nan;101538.25;5047639;28;20441;-77
2021/05/01 05:19:00;;;;;;;21.08;13.20;;;;;;;6.75;nan;101532.72;5050655;28;20086;-78
2021/05/01 05:21:26;;;;;;;17.95;11.63;;;;;;;6.79;nan;101541.13;5051534;28;20041;-77
2021/05/01 05:23:51;;;;;;;19.38;11.80;;;;;;;6.71;nan;101534.16;5048334;28;20036;-77
2021/05/01 05:26:17;;;;;;;19.35;12.05;;;;;;;6.76;nan;101538.88;5054870;28;20021;-77
2021/05/01 05:28:43;;;;;;;19.45;12.15;;;;;;;6.83;nan;101545.03;5047781;28;20028;-77
2021/05/01 05:31:08;;;;;;;20.05;12.02;;;;;;;6.87;nan;101544.41;5049255;28;20033;-76
2021/05/01 05:33:33;;;;;;;20.45;13.15;;;;;;;6.89;nan;101544.22;5049401;28;20024;-77
2021/05/01 05:35:59;;;;;;;17.38;12.25;;;;;;;6.88;nan;101540.72;5049525;28;20060;-77
2021/05/01 05:38:25;;;;;;;19.67;11.88;;;;;;;6.88;nan;101538.06;5057052;28;20029;-77
2021/05/01 05:40:51;;;;;;;19.77;12.57;;;;;;;6.89;nan;101550.34;5041352;28;20073;-77
2021/05/01 05:43:16;;;;;;;18.73;11.68;;;;;;;6.89;nan;101553.03;5045623;28;20066;-77
2021/05/01 05:45:45;;;;;;;17.65;11.68;;;;;;;6.88;nan;101543.38;5040775;28;20083;-77
2021/05/01 05:48:11;;;;;;;19.77;11.13;;;;;;;6.83;nan;101553.84;5042985;28;20035;-77
2021/05/01 05:50:36;;;;;;;18.73;12.30;;;;;;;6.78;nan;101555.47;5044154;28;20033;-77
2021/05/01 05:53:02;;;;;;;19.67;11.75;;;;;;;6.75;nan;101553.19;5047980;28;20044;-77
2021/05/01 05:55:27;;;;;;;21.55;13.18;;;;;;;6.72;nan;101554.44;5050393;28;20032;-77
2021/05/01 05:57:54;;;;;;;21.25;12.60;;;;;;;6.71;nan;101555.47;5042094;28;20025;-77
2021/05/01 06:00:23;;;;;;;20.05;12.45;;;;;;;6.76;nan;101554.84;5044467;28;20032;-77
2021/05/01 06:02:51;;;;;;;23.25;12.20;;;;;;;6.75;nan;101554.03;5052395;28;20091;-77
2021/05/01 06:05:26;;;;;;;21.52;12.02;;;;;;;6.56;nan;101557.47;5051914;28;20477;-77
2021/05/01 06:07:54;;;;;;;18.63;12.27;;;;;;;6.69;nan;101562.84;5065080;28;20110;-77
2021/05/01 06:10:21;;;;;;;23.63;12.63;;;;;;;6.73;nan;101557.91;5048425;28;20549;-77
2021/05/01 06:12:47;;;;;;;19.63;12.25;;;;;;;6.86;nan;101557.94;5054191;28;20024;-77
2021/05/01 06:15:15;;;;;;;22.77;13.18;;;;;;;6.85;nan;101562.44;5047236;28;20024;-77
2021/05/01 06:17:43;;;;;;;21.55;13.70;;;;;;;6.84;nan;101557.31;5047300;28;20025;-77
2021/05/01 06:20:10;;;;;;;21.88;13.55;;;;;;;6.85;nan;101554.47;5055503;28;20396;-77
2021/05/01 06:22:36;;;;;;;19.08;12.30;;;;;;;6.93;nan;101554.25;5043887;28;20068;-77
2021/05/01 06:25:05;;;;;;;18.65;12.30;;;;;;;6.98;nan;101548.28;5046348;28;20029;-77
2021/05/01 06:27:31;;;;;;;19.88;13.05;;;;;;;7.03;nan;101543.19;5063609;28;20040;-77
2021/05/01 06:29:56;;;;;;;19.80;13.52;;;;;;;7.04;nan;101550.16;5044286;28;20033;-77
2021/05/01 06:32:22;;;;;;;20.35;13.30;;;;;;;7.03;nan;101555.69;5046257;28;20057;-78
2021/05/01 06:34:53;;;;;;;23.02;13.40;;;;;;;7.01;nan;101557.75;5045609;28;20021;-77
2021/05/01 06:37:20;;;;;;;20.80;12.70;;;;;;;6.94;nan;101563.88;5047832;28;20040;-78
2021/05/01 06:39:48;;;;;;;22.85;14.43;;;;;;;6.88;nan;101570.03;5043311;28;20059;-78
2021/05/01 06:42:18;;;;;;;23.27;13.05;;;;;;;6.89;nan;101570.84;5046344;28;20021;-78
2021/05/01 06:44:50;;;;;;;23.60;13.55;;;;;;;6.88;nan;101570.03;5041857;28;20031;-77
2021/05/01 06:47:22;;;;;;;22.25;14.00;;;;;;;6.90;nan;101567.97;5044160;28;20031;-78
2021/05/01 06:49:50;;;;;;;24.30;13.52;;;;;;;6.83;nan;101567.16;5044373;28;20025;-78
2021/05/01 06:52:17;;;;;;;22.77;14.65;;;;;;;6.85;nan;101567.78;5037146;28;20029;-78
2021/05/01 06:54:45;;;;;;;22.63;13.80;;;;;;;6.86;nan;101572.06;5044792;28;20066;-78
2021/05/01 06:57:11;;;;;;;21.83;14.32;;;;;;;6.94;nan;101577.19;5044395;28;20021;-78
2021/05/01 06:59:38;;;;;;;24.23;14.85;;;;;;;6.97;nan;101568.78;5043562;28;20091;-78
2021/05/01 07:02:03;;;;;;;22.63;15.50;;;;;;;7.02;nan;101581.53;5046623;28;20033;-77
2021/05/01 07:04:29;;;;;;;26.80;15.25;;;;;;;6.94;nan;101584.38;5047223;28;20025;-78
2021/05/01 07:06:55;;;;;;;28.77;16.27;;;;;;;6.92;nan;101575.75;5045779;28;20120;-78
2021/05/01 07:09:21;;;;;;;27.63;15.77;;;;;;;6.92;nan;101576.59;5050100;28;20083;-78
2021/05/01 07:11:47;;;;;;;24.77;15.52;;;;;;;7.01;nan;101574.56;5044723;28;20025;-78
2021/05/01 07:14:14;;;;;;;26.83;17.27;;;;;;;7.02;nan;101580.72;5046315;28;20033;-77
2021/05/01 07:16:41;;;;;;;24.38;14.80;;;;;;;7.00;nan;101583.53;5043319;28;20100;-79
2021/05/01 07:19:11;;;;;;;26.17;16.58;;;;;;;7.02;nan;101576.19;5043917;28;20027;-79
2021/05/01 07:21:37;;;;;;;28.35;16.83;;;;;;;6.98;nan;101591.75;5046293;28;20453;-80
2021/05/01 07:24:03;;;;;;;28.23;16.63;;;;;;;7.04;nan;101584.81;5046951;28;20064;-82
2021/05/01 07:26:30;;;;;;;30.88;16.45;;;;;;;7.06;nan;101584.59;5041248;28;20063;-80
2021/05/01 07:28:58;;;;;;;29.98;17.23;;;;;;;7.06;nan;101579.25;5043277;28;20029;-80
2021/05/01 07:31:28;;;;;;;27.30;16.55;;;;;;;7.08;nan;101590.53;5039464;28;20097;-80
2021/05/01 07:33:56;;;;;;;31.73;16.88;;;;;;;7.04;nan;101584.81;5045808;28;20422;-81
2021/05/01 07:36:41;;;;;;;29.27;16.98;;;;;;;7.07;nan;101578.25;5049003;28;20025;-80
2021/05/01 07:39:10;;;;;;;28.97;16.63;;;;;;;7.10;nan;101585.81;5044449;28;20029;-79
2021/05/01 07:41:40;;;;;;;28.55;16.60;;;;;;;7.11;nan;101582.94;5042697;28;20025;-79
2021/05/01 07:44:08;;;;;;;29.02;17.77;;;;;;;7.19;nan;101593.41;5045793;28;20036;-79
2021/05/01 07:46:34;;;;;;;29.88;16.98;;;;;;;7.24;nan;101588.28;5043513;28;20028;-79
2021/05/01 07:49:00;;;;;;;25.50;16.20;;;;;;;7.38;nan;101590.97;5037867;28;20403;-79
2021/05/01 07:51:27;;;;;;;31.08;17.23;;;;;;;7.47;nan;101589.69;5044467;28;20574;-79
2021/05/01 07:53:52;;;;;;;27.67;16.27;;;;;;;7.47;nan;101585.19;5039781;28;20360;-79
2021/05/01 07:56:18;;;;;;;28.88;17.27;;;;;;;7.52;nan;101585.38;5040354;28;20116;-79
2021/05/01 07:58:43;;;;;;;29.00;16.08;;;;;;;7.57;nan;101582.13;5040657;28;20025;-79
2021/05/01 08:01:09;;;;;;;28.23;15.50;;;;;;;7.61;nan;101583.31;5044905;28;20024;-79
2021/05/01 08:03:35;;;;;;;26.13;15.52;;;;;;;7.65;nan;101589.06;5042590;28;20518;-79
2021/05/01 08:06:02;;;;;;;26.52;16.48;;;;;;;7.67;nan;101590.50;5042298;28;20024;-79
2021/05/01 08:08:27;;;;;;;27.98;15.93;;;;;;;7.64;nan;101585.56;5044910;28;20151;-79
2021/05/01 08:10:53;;;;;;;29.80;16.88;;;;;;;7.67;nan;101587.00;5050015;28;20112;-79
2021/05/01 08:13:18;;;;;;;24.60;16.00;;;;;;;7.78;nan;101587.19;5045692;28;20037;-79
2021/05/01 08:15:44;;;;;;;29.13;16.45;;;;;;;7.88;nan;101595.56;5051189;28;20020;-79
2021/05/01 08:18:09;;;;;;;27.90;17.35;;;;;;;7.84;nan;101593.53;5048226;28;20082;-79
2021/05/01 08:20:36;;;;;;;28.65;17.52;;;;;;;7.84;nan;101591.69;5049876;28;20494;-80
2021/05/01 08:23:02;;;;;;;30.20;17.83;;;;;;;7.91;nan;101591.69;5049726;28;20494;-79
2021/05/01 08:25:28;;;;;;;28.85;17.75;;;;;;;7.96;nan;101594.53;5048586;28;20100;-79
2021/05/01 08:27:54;;;;;;;27.77;16.25;;;;;;;8.06;nan;101594.06;5045486;28;20450;-78
2021/05/01 08:30:20;;;;;;;25.08;15.18;;;;;;;8.15;nan;101592.81;5046324;28;20029;-78
2021/05/01 08:32:47;;;;;;;29.63;16.52;;;;;;;8.15;nan;101590.97;5046788;28;20392;-79
2021/05/01 08:35:14;;;;;;;26.15;15.73;;;;;;;8.10;nan;101598.00;5051855;28;20033;-79
2021/05/01 08:37:41;;;;;;;24.20;15.50;;;;;;;8.02;nan;101592.88;5047843;28;20024;-79
2021/05/01 08:40:08;;;;;;;27.98;16.77;;;;;;;8.03;nan;101589.97;5045851;28;20031;-80
2021/05/01 08:42:34;;;;;;;29.90;16.70;;;;;;;7.99;nan;101593.28;5050718;28;20033;-78
2021/05/01 08:45:07;;;;;;;25.52;16.08;;;;;;;7.92;nan;101595.16;5050617;28;20036;-78
2021/05/01 08:47:39;;;;;;;27.77;15.75;;;;;;;7.93;nan;101597.63;5033929;28;20302;-78
2021/05/01 08:50:07;;;;;;;25.63;16.08;;;;;;;7.99;nan;101587.94;5041935;28;20033;-79
2021/05/01 08:52:35;;;;;;;24.70;16.05;;;;;;;7.89;nan;101589.19;5047531;28;20033;-79
2021/05/01 08:55:00;;;;;;;29.23;17.98;;;;;;;7.95;nan;101581.41;5049998;28;20021;-79
2021/05/01 08:57:28;;;;;;;26.70;17.10;;;;;;;8.02;nan;101584.84;5045379;28;20032;-78
2021/05/01 08:59:54;;;;;;;26.63;16.48;;;;;;;8.13;nan;101585.03;5051771;28;20020;-78
2021/05/01 09:02:23;;;;;;;26.27;15.70;;;;;;;7.96;nan;101588.38;5051065;28;20093;-78
2021/05/01 09:04:49;;;;;;;28.40;16.23;;;;;;;8.03;nan;101584.66;5051501;28;20025;-79
2021/05/01 09:07:17;;;;;;;26.77;15.10;;;;;;;8.02;nan;101571.50;5055639;28;20013;-79
2021/05/01 09:09:51;;;;;;;25.80;15.55;;;;;;;7.98;nan;101581.78;5042348;28;20029;-79
2021/05/01 09:12:36;;;;;;;27.77;15.87;;;;;;;7.82;nan;101569.72;5051845;28;20108;-79
2021/05/01 09:15:05;;;;;;;25.15;15.77;;;;;;;7.86;nan;101568.28;5045493;28;20028;-79
2021/05/01 09:17:31;;;;;;;25.98;15.65;;;;;;;7.98;nan;101560.44;5047452;28;20033;-79
2021/05/01 09:20:05;;;;;;;26.58;15.70;;;;;;;8.05;nan;101563.91;5045379;28;20560;-79
2021/05/01 09:22:30;;;;;;;25.80;16.60;;;;;;;8.15;nan;101563.47;5043869;28;20021;-79
2021/05/01 09:25:07;;;;;;;25.50;15.27;;;;;;;8.14;nan;101562.66;5045325;28;20037;-79
2021/05/01 09:27:34;;;;;;;26.88;16.83;;;;;;;8.20;nan;101560.97;5049806;28;20643;-79
2021/05/01 09:30:15;;;;;;;23.98;15.32;;;;;;;8.29;nan;101562.38;5049204;28;20542;-79
2021/05/01 09:32:41;;;;;;;25.27;15.73;;;;;;;8.28;nan;101554.59;5046417;28;20029;-79
2021/05/01 09:35:08;;;;;;;20.63;13.82;;;;;;;8.18;nan;101555.03;5052495;28;20036;-78
2021/05/01 09:37:34;;;;;;;24.50;15.90;;;;;;;8.14;nan;101549.31;5047702;28;20098;-78
2021/05/01 09:40:00;;;;;;;25.17;16.10;;;;;;;8.14;nan;101551.97;5046337;28;20033;-78
2021/05/01 09:42:29;;;;;;;23.50;14.85;;;;;;;8.24;nan;101548.00;5050065;28;20487;-78
2021/05/01 09:45:10;;;;;;;24.10;14.35;;;;;;;8.22;nan;101556.22;5042320;28;20031;-79
2021/05/01 09:47:36;;;;;;;39.08;22.90;;;;;;;8.26;nan;101567.31;5061826;28;20398;-79
2021/05/01 09:50:21;;;;;;;66.93;35.72;;;;;;;8.14;nan;101557.31;5041016;28;20055;-79
2021/05/01 09:53:02;;;;;;;39.00;22.65;;;;;;;8.19;nan;101560.16;5046652;28;20024;-79
2021/05/01 09:55:44;;;;;;;47.28;25.75;;;;;;;8.22;nan;101563.44;5046866;28;20522;-79
2021/05/01 09:58:19;;;;;;;60.40;31.77;;;;;;;8.26;nan;101568.16;5048042;28;20041;-79
2021/05/01 10:00:45;;;;;;;54.30;29.17;;;;;;;8.19;nan;101568.16;5045818;28;20107;-79
2021/05/01 10:03:18;;;;;;;26.27;16.58;;;;;;;8.21;nan;101567.94;5060364;28;20122;-79
2021/05/01 10:05:46;;;;;;;25.05;15.20;;;;;;;8.09;nan;101562.47;5050751;28;20363;-79
2021/05/01 10:08:14;;;;;;;23.65;15.13;;;;;;;8.18;nan;101553.19;5047103;28;20098;-79
2021/05/01 10:10:41;;;;;;;22.02;14.10;;;;;;;8.23;nan;101552.53;5046560;28;20056;-79
2021/05/01 10:13:07;;;;;;;25.55;16.13;;;;;;;8.05;nan;101545.22;5045433;28;20119;-80
2021/05/01 10:15:33;;;;;;;26.52;15.18;;;;;;;8.26;nan;101546.78;5042536;28;20702;-74
2021/05/01 10:18:27;;;;;;;23.10;15.88;;;;;;;8.22;nan;101534.88;5038408;28;20036;-74
2021/05/01 10:20:53;;;;;;;21.87;15.40;;;;;;;8.42;nan;101535.63;5032319;28;20046;-79
2021/05/01 10:23:20;;;;;;;24.08;16.67;;;;;;;8.17;nan;101532.03;5046736;28;20115;-78
2021/05/01 10:25:47;;;;;;;24.45;15.77;;;;;;;8.46;nan;101541.38;5047960;28;20079;-78
2021/05/01 10:28:16;;;;;;;23.15;14.35;;;;;;;8.54;nan;101543.78;5049454;28;20035;-78
2021/05/01 10:30:53;;;;;;;24.85;16.08;;;;;;;8.56;nan;101541.69;5048176;28;20040;-78
2021/05/01 10:33:31;;;;;;;22.90;14.88;;;;;;;8.61;nan;101544.53;5044008;28;20043;-77
2021/05/01 10:36:15;;;;;;;22.48;14.00;;;;;;;8.49;nan;101538.25;5046978;28;20047;-77
2021/05/01 10:38:41;;;;;;;22.45;14.45;;;;;;;8.67;nan;101546.38;5042291;28;20029;-77
2021/05/01 10:41:15;;;;;;;23.88;15.23;;;;;;;8.67;nan;101545.56;5046340;28;20032;-77
2021/05/01 10:43:48;;;;;;;23.55;15.65;;;;;;;8.50;nan;101549.75;5041800;28;20029;-77
2021/05/01 10:46:30;;;;;;;37.33;23.08;;;;;;;8.50;nan;101553.25;5045423;28;20036;-79
2021/05/01 10:48:59;;;;;;;48.75;26.00;;;;;;;8.60;nan;101556.25;5050721;28;20024;-80
2021/05/01 10:51:27;;;;;;;25.10;15.27;;;;;;;8.58;nan;101560.19;5055779;28;20029;-78
2021/05/01 10:54:13;;;;;;;23.42;14.40;;;;;;;8.59;nan;101551.94;5040344;28;20131;-79
2021/05/01 10:56:45;;;;;;;24.95;14.32;;;;;;;8.51;nan;101554.88;5036855;28;20036;-80
2021/05/01 10:59:19;;;;;;;21.40;13.88;;;;;;;8.61;nan;101557.91;5039019;28;20687;-79
2021/05/01 11:01:50;;;;;;;22.75;14.80;;;;;;;8.57;nan;101551.34;5043445;28;20102;-79
2021/05/01 11:04:28;;;;;;;27.30;16.13;;;;;;;8.52;nan;101551.19;5040065;28;20320;-79
2021/05/01 11:06:53;;;;;;;24.17;14.77;;;;;;;8.57;nan;101554.03;5035719;28;20032;-78
2021/05/01 11:09:39;;;;;;;24.92;14.77;;;;;;;8.56;nan;101556.91;5035494;28;20026;-79
2021/05/01 11:12:09;;;;;;;25.05;15.07;;;;;;;8.60;nan;101553.59;5030678;28;20048;-78
2021/05/01 11:14:40;;;;;;;21.58;14.75;;;;;;;8.62;nan;101551.56;5033755;28;20640;-79
2021/05/01 11:17:15;;;;;;;27.63;16.15;;;;;;;8.51;nan;101554.06;5038345;28;20170;-79
2021/05/01 11:19:45;;;;;;;;;;;;;;;8.58;nan;101558.34;5037725;28;20024;-79
2021/05/01 11:22:15;;;;;;;22.00;14.98;;;;;;;8.76;nan;101555.75;5048485;28;20042;-79
2021/05/01 11:24:44;;;;;;;23.92;14.38;;;;;;;8.82;nan;101558.59;5036215;28;20693;-79
2021/05/01 11:27:11;;;;;;;26.55;16.05;;;;;;;8.84;nan;101564.56;5035288;28;20070;-79
2021/05/01 11:29:39;;;;;;;29.95;17.67;;;;;;;8.85;nan;101571.53;5036546;28;20101;-79
2021/05/01 11:32:05;;;;;;;22.50;14.27;;;;;;;8.82;nan;101571.97;5037976;28;21577;-79
2021/05/01 11:34:33;;;;;;;25.60;16.55;;;;;;;8.84;nan;101569.91;5030847;28;20079;-79
2021/05/01 11:37:02;;;;;;;26.33;15.93;;;;;;;8.88;nan;101563.06;5035901;28;20503;-79